Time;durP1;ratioP1;P1;durP2;ratioP2;P2;SDS_P1;SDS_P2;PMS_P1;PMS_P2;Temp;Humidity;BMP_temperature;BMP_pressure;BME280_temperature;BME280_humidity;BME280_pressure;Samples;Min_cycle;Max_cycle;Signal;HPM_P1;HPM_P2
2022/09/30 00:02:24;;;;;;;7.20;5.47;;;1.70;99.90;;;;;;8352670;28;20216;-67
2022/09/30 00:06:26;;;;;;;7.60;5.43;;;1.60;99.90;;;;;;8355996;28;20198;-67
2022/09/30 00:10:28;;;;;;;6.80;4.80;;;1.50;99.90;;;;;;8358938;28;20178;-67
2022/09/30 00:14:29;;;;;;;6.77;5.53;;;1.50;99.90;;;;;;8356067;28;20198;-70
2022/09/30 00:18:30;;;;;;;6.13;4.60;;;1.50;99.90;;;;;;8361895;28;20178;-70
2022/09/30 00:22:30;;;;;;;7.60;5.07;;;1.40;99.90;;;;;;8357554;28;20224;-70
2022/09/30 00:26:32;;;;;;;7.93;4.90;;;1.40;99.90;;;;;;8359462;28;20178;-69
2022/09/30 00:30:33;;;;;;;6.53;5.33;;;1.40;99.90;;;;;;8354736;28;20234;-69
2022/09/30 00:34:34;;;;;;;9.50;5.87;;;1.40;99.90;;;;;;8360715;28;20263;-69
2022/09/30 00:38:35;;;;;;;11.20;7.17;;;1.40;99.90;;;;;;8356648;28;20194;-69
2022/09/30 00:42:39;;;;;;;12.27;8.23;;;1.40;99.90;;;;;;8355066;28;20221;-69
2022/09/30 00:46:40;;;;;;;11.80;7.90;;;1.40;99.90;;;;;;8353741;28;20253;-69
2022/09/30 00:50:45;;;;;;;11.10;8.20;;;1.40;99.90;;;;;;8353714;28;20189;-69
2022/09/30 00:54:46;;;;;;;11.87;7.73;;;1.40;99.90;;;;;;8363814;28;20236;-69
2022/09/30 00:58:50;;;;;;;12.27;8.27;;;1.40;99.90;;;;;;8359229;28;20177;-70
2022/09/30 01:02:51;;;;;;;10.73;7.83;;;1.30;99.90;;;;;;8362788;28;21022;-69
2022/09/30 01:06:52;;;;;;;10.90;7.67;;;1.30;99.90;;;;;;8359297;28;20211;-69
2022/09/30 01:10:53;;;;;;;12.17;7.43;;;1.30;99.90;;;;;;8363183;28;20193;-69
2022/09/30 01:14:57;;;;;;;13.43;8.70;;;1.30;99.90;;;;;;8366304;28;20291;-69
2022/09/30 01:19:45;;;;;;;9.50;7.30;;;1.20;99.90;;;;;;8362271;28;20264;-69
2022/09/30 01:23:55;;;;;;;11.83;7.73;;;1.20;99.90;;;;;;8372927;28;20229;-69
2022/09/30 01:28:27;;;;;;;13.87;8.37;;;1.20;99.90;;;;;;8358074;28;20186;-68
2022/09/30 01:33:00;;;;;;;10.03;6.97;;;1.20;99.90;;;;;;8363400;28;20189;-69
2022/09/30 01:37:31;;;;;;;13.00;7.87;;;1.20;99.90;;;;;;8361164;28;20182;-69
2022/09/30 01:41:53;;;;;;;11.73;7.50;;;1.20;99.90;;;;;;8376134;28;20213;-71
2022/09/30 01:46:01;;;;;;;11.33;7.20;;;1.20;99.90;;;;;;8361007;28;20223;-69
2022/09/30 01:50:22;;;;;;;9.90;6.73;;;1.20;99.90;;;;;;8346266;28;20220;-69
2022/09/30 01:54:25;;;;;;;11.57;7.80;;;1.30;99.90;;;;;;8362110;28;20185;-69
2022/09/30 01:58:44;;;;;;;11.17;8.03;;;1.30;99.90;;;;;;8363262;28;20193;-70
2022/09/30 02:02:52;;;;;;;11.27;7.37;;;1.30;99.90;;;;;;8356768;28;20326;-69
2022/09/30 02:06:59;;;;;;;9.30;7.00;;;1.40;99.90;;;;;;8353864;28;20235;-68
2022/09/30 02:11:13;;;;;;;11.93;7.60;;;1.50;99.90;;;;;;8357215;28;20186;-69
2022/09/30 02:15:23;;;;;;;11.23;7.87;;;1.50;99.90;;;;;;8359353;28;20210;-69
2022/09/30 02:19:42;;;;;;;11.13;7.00;;;1.40;99.90;;;;;;8360007;28;20228;-68
2022/09/30 02:23:46;;;;;;;9.10;6.63;;;1.30;99.90;;;;;;8359843;28;20205;-69
2022/09/30 02:27:53;;;;;;;10.37;6.73;;;1.20;99.90;;;;;;8348178;28;20205;-69
2022/09/30 02:31:59;;;;;;;8.43;5.87;;;1.20;99.90;;;;;;8361472;28;20186;-68
2022/09/30 02:36:25;;;;;;;10.67;7.10;;;1.10;99.90;;;;;;8365946;28;20181;-69
2022/09/30 02:40:38;;;;;;;13.47;6.77;;;1.00;99.90;;;;;;8357387;28;20194;-66
2022/09/30 02:44:39;;;;;;;12.57;7.80;;;0.90;99.90;;;;;;8357506;28;20297;-66
2022/09/30 02:49:04;;;;;;;9.20;6.50;;;0.90;99.90;;;;;;8363801;28;20173;-69
2022/09/30 02:53:05;;;;;;;8.83;6.53;;;0.90;99.90;;;;;;8360074;28;20174;-69
2022/09/30 02:57:20;;;;;;;8.53;6.13;;;0.80;99.90;;;;;;8346074;28;20186;-69
2022/09/30 03:01:21;;;;;;;8.30;5.77;;;0.80;99.90;;;;;;8345049;28;20218;-69
2022/09/30 03:05:22;;;;;;;8.57;6.37;;;0.80;99.90;;;;;;8363354;28;20182;-69
2022/09/30 03:09:27;;;;;;;8.77;5.97;;;0.80;99.90;;;;;;8358604;28;20187;-68
2022/09/30 03:14:00;;;;;;;8.13;5.97;;;0.80;99.90;;;;;;8360153;28;20209;-69
2022/09/30 03:18:20;;;;;;;8.70;6.40;;;0.90;99.90;;;;;;8359624;28;20170;-69
2022/09/30 03:22:38;;;;;;;14.63;8.10;;;1.10;99.90;;;;;;8362104;28;20208;-69
2022/09/30 03:27:13;;;;;;;15.23;8.40;;;1.20;99.90;;;;;;8355582;28;20188;-69
2022/09/30 03:32:11;;;;;;;12.90;7.13;;;1.30;99.90;;;;;;8363054;28;20189;-69
2022/09/30 03:36:23;;;;;;;10.07;7.03;;;1.40;99.90;;;;;;8333029;28;20204;-69
2022/09/30 03:40:59;;;;;;;11.57;7.57;;;1.50;99.90;;;;;;8343004;28;20200;-69
2022/09/30 03:45:23;;;;;;;9.67;7.03;;;1.50;99.90;;;;;;8356454;28;20193;-69
2022/09/30 03:49:28;;;;;;;9.97;6.80;;;1.50;99.90;;;;;;8354674;28;20188;-69
2022/09/30 03:53:28;;;;;;;8.87;6.10;;;1.60;99.90;;;;;;8358846;28;20223;-69
2022/09/30 03:57:29;;;;;;;8.17;6.17;;;1.60;99.90;;;;;;8353940;28;20177;-69
2022/09/30 04:01:30;;;;;;;9.27;6.07;;;1.70;99.90;;;;;;8357444;28;20262;-69
2022/09/30 04:05:31;;;;;;;22.93;12.33;;;1.70;99.90;;;;;;8354304;28;20173;-69
2022/09/30 04:09:32;;;;;;;20.33;11.60;;;1.80;99.90;;;;;;8360637;28;20192;-73
2022/09/30 04:13:33;;;;;;;19.80;9.80;;;1.80;99.90;;;;;;8364970;28;20210;-69
2022/09/30 04:17:33;;;;;;;15.90;8.67;;;1.80;99.90;;;;;;8358529;28;20679;-69
2022/09/30 04:21:34;;;;;;;13.80;8.00;;;1.70;99.90;;;;;;8360193;28;20209;-69
2022/09/30 04:25:35;;;;;;;10.50;7.10;;;1.50;99.90;;;;;;8359869;28;20232;-69
2022/09/30 04:29:36;;;;;;;13.83;7.83;;;1.50;99.90;;;;;;8363281;28;20184;-68
2022/09/30 04:33:38;;;;;;;9.40;6.63;;;1.40;99.90;;;;;;8361831;28;20197;-68
2022/09/30 04:37:47;;;;;;;10.03;6.23;;;1.30;99.90;;;;;;8361015;28;20185;-68
2022/09/30 04:41:49;;;;;;;9.90;7.03;;;1.20;99.90;;;;;;8362986;28;20203;-68
2022/09/30 04:45:54;;;;;;;9.07;6.03;;;1.10;99.90;;;;;;8360751;28;20182;-68
2022/09/30 04:49:56;;;;;;;7.60;5.87;;;1.10;99.90;;;;;;8362540;28;20182;-69
2022/09/30 04:53:57;;;;;;;8.97;6.43;;;1.00;99.90;;;;;;8346428;28;20315;-69
2022/09/30 04:57:57;;;;;;;7.40;5.33;;;1.00;99.90;;;;;;8361061;28;20209;-68
2022/09/30 05:01:58;;;;;;;13.53;7.87;;;1.00;99.90;;;;;;8363865;28;20243;-68
2022/09/30 05:06:00;;;;;;;9.90;7.10;;;1.10;99.90;;;;;;8363601;28;20184;-68
2022/09/30 05:10:00;;;;;;;9.63;6.37;;;1.10;99.90;;;;;;8357625;28;20182;-67
2022/09/30 05:14:07;;;;;;;12.30;7.97;;;1.30;99.90;;;;;;8361536;28;20251;-65
2022/09/30 05:18:08;;;;;;;12.33;8.23;;;1.30;99.90;;;;;;8364175;28;20227;-66
2022/09/30 05:22:09;;;;;;;9.90;6.57;;;1.40;99.90;;;;;;8366025;28;20255;-66
2022/09/30 05:26:10;;;;;;;14.03;8.77;;;1.40;99.90;;;;;;8358879;28;20265;-66
2022/09/30 05:30:11;;;;;;;15.00;9.97;;;1.50;99.90;;;;;;8363370;28;20241;-65
2022/09/30 05:34:11;;;;;;;14.13;9.20;;;1.60;99.90;;;;;;8358782;28;20182;-68
2022/09/30 05:38:12;;;;;;;13.03;9.23;;;1.80;99.90;;;;;;8366503;28;20189;-69
2022/09/30 05:42:13;;;;;;;10.77;8.47;;;1.90;99.90;;;;;;8362191;28;20213;-68
2022/09/30 05:46:18;;;;;;;10.80;7.93;;;2.10;99.90;;;;;;8360577;28;20197;-67
2022/09/30 05:50:22;;;;;;;12.53;8.33;;;2.20;99.90;;;;;;8363497;28;20210;-68
2022/09/30 05:54:23;;;;;;;11.23;7.73;;;2.40;99.90;;;;;;8365865;28;20190;-68
2022/09/30 05:58:23;;;;;;;10.97;8.13;;;2.60;99.90;;;;;;8361278;28;20240;-68
2022/09/30 06:02:24;;;;;;;9.83;7.60;;;2.70;99.90;;;;;;8364104;28;20217;-68
2022/09/30 06:06:25;;;;;;;12.60;8.03;;;2.80;99.90;;;;;;8362182;28;20182;-70
2022/09/30 06:10:27;;;;;;;11.37;6.90;;;2.90;99.90;;;;;;8364510;28;20186;-68
2022/09/30 06:14:28;;;;;;;10.27;6.70;;;3.00;99.90;;;;;;8361542;28;20228;-68
2022/09/30 06:18:29;;;;;;;9.37;7.07;;;3.10;99.90;;;;;;8359649;28;20193;-68
2022/09/30 06:22:34;;;;;;;9.93;7.40;;;3.30;99.90;;;;;;8364676;28;20212;-68
2022/09/30 06:26:35;;;;;;;11.27;7.63;;;3.50;99.90;;;;;;8362227;28;20191;-69
2022/09/30 06:30:36;;;;;;;12.03;7.43;;;3.70;99.90;;;;;;8363034;28;20286;-69
2022/09/30 06:34:37;;;;;;;14.93;7.97;;;4.00;99.90;;;;;;8352329;28;20372;-69
2022/09/30 06:38:41;;;;;;;9.80;7.40;;;4.30;99.90;;;;;;8356331;28;20302;-69
2022/09/30 06:42:42;;;;;;;9.93;7.50;;;4.50;99.90;;;;;;8357399;28;20209;-69
2022/09/30 06:46:43;;;;;;;14.20;9.10;;;4.70;99.90;;;;;;8355957;28;20193;-69
2022/09/30 06:50:44;;;;;;;10.17;7.83;;;4.90;99.90;;;;;;8363043;28;20185;-69
2022/09/30 06:54:45;;;;;;;14.10;9.63;;;5.10;99.90;;;;;;8358839;28;20185;-68
2022/09/30 06:58:47;;;;;;;12.37;9.20;;;5.20;99.90;;;;;;8362896;28;20206;-68
2022/09/30 07:02:48;;;;;;;26.77;18.27;;;5.40;99.90;;;;;;8363305;28;20217;-69
2022/09/30 07:06:48;;;;;;;37.97;22.27;;;5.60;99.90;;;;;;8359387;28;20215;-68
2022/09/30 07:10:49;;;;;;;76.87;41.63;;;5.80;99.90;;;;;;8356422;28;20189;-68
2022/09/30 07:14:50;;;;;;;77.63;43.80;;;6.10;99.90;;;;;;8362146;28;20280;-67
2022/09/30 07:18:51;;;;;;;43.60;26.30;;;6.20;99.90;;;;;;8357290;28;20225;-67
2022/09/30 07:22:52;;;;;;;49.13;30.40;;;6.40;99.90;;;;;;8354255;28;20584;-68
2022/09/30 07:26:53;;;;;;;39.80;24.43;;;6.60;99.90;;;;;;8363353;28;20203;-68
2022/09/30 07:30:57;;;;;;;111.33;62.63;;;6.70;99.90;;;;;;8359294;28;20191;-67
2022/09/30 07:34:58;;;;;;;103.00;57.80;;;7.00;99.90;;;;;;8351333;28;20193;-68
2022/09/30 07:39:04;;;;;;;124.97;74.00;;;7.20;99.90;;;;;;8363843;28;20522;-68
2022/09/30 07:43:05;;;;;;;89.73;53.87;;;7.40;99.90;;;;;;8355798;28;20198;-68
2022/09/30 07:47:06;;;;;;;88.00;53.73;;;7.50;99.90;;;;;;8360079;28;20186;-68
2022/09/30 07:51:08;;;;;;;78.50;49.47;;;7.70;99.90;;;;;;8356513;28;20193;-68
2022/09/30 07:55:10;;;;;;;79.77;49.33;;;7.70;99.90;;;;;;8357638;28;20185;-68
2022/09/30 07:59:12;;;;;;;95.27;59.87;;;8.00;99.90;;;;;;8361078;28;20200;-68
2022/09/30 08:03:12;;;;;;;90.77;55.07;;;8.30;99.90;;;;;;8361795;28;20212;-68
2022/09/30 08:07:15;;;;;;;57.20;38.87;;;8.60;99.90;;;;;;8357083;28;20177;-69
2022/09/30 08:11:16;;;;;;;48.90;33.07;;;9.00;99.90;;;;;;8360731;28;20196;-69
2022/09/30 08:15:17;;;;;;;33.10;23.73;;;9.30;99.90;;;;;;8361967;28;20204;-69
2022/09/30 08:19:20;;;;;;;30.87;20.77;;;9.60;99.90;;;;;;8362939;28;20196;-68
2022/09/30 08:23:21;;;;;;;27.17;18.50;;;9.90;99.90;;;;;;8357412;28;20184;-69
2022/09/30 08:27:22;;;;;;;35.20;21.27;;;10.20;99.90;;;;;;8352825;28;20448;-69
2022/09/30 08:31:23;;;;;;;29.93;19.23;;;10.60;1.00;;;;;;8360919;28;20236;-69
2022/09/30 08:35:24;;;;;;;25.23;17.30;;;10.90;99.90;;;;;;8354046;28;20326;-69
2022/09/30 08:39:25;;;;;;;23.73;17.07;;;11.30;99.90;;;;;;8354924;28;20257;-69
2022/09/30 08:43:35;;;;;;;23.23;17.33;;;11.60;99.90;;;;;;8361647;28;20513;-69
2022/09/30 08:47:59;;;;;;;24.97;16.87;;;11.90;99.90;;;;;;8356691;28;20296;-69
2022/09/30 08:52:03;;;;;;;21.87;15.83;;;12.30;99.90;;;;;;8359659;28;20217;-68
2022/09/30 08:56:05;;;;;;;29.30;18.07;;;12.70;99.90;;;;;;8343643;28;20174;-69
2022/09/30 09:00:11;;;;;;;23.43;14.90;;;13.00;73.10;;;;;;8359466;28;20181;-69
2022/09/30 09:04:13;;;;;;;22.10;14.80;;;13.30;29.80;;;;;;8360455;28;20186;-69
2022/09/30 09:09:24;;;;;;;16.43;11.13;;;13.50;10.10;;;;;;8357674;28;20193;-72
2022/09/30 09:13:46;;;;;;;14.93;10.90;;;13.70;1.00;;;;;;8386166;28;20213;-70
2022/09/30 09:18:17;;;;;;;15.23;11.37;;;13.90;4.00;;;;;;8360238;28;20188;-70
2022/09/30 09:22:18;;;;;;;13.73;10.03;;;13.90;10.40;;;;;;8363574;28;20203;-69
2022/09/30 09:26:19;;;;;;;16.47;11.43;;;14.00;32.10;;;;;;8364325;28;20182;-69
2022/09/30 09:30:22;;;;;;;14.87;10.87;;;14.20;1.00;;;;;;8364762;28;20181;-69
2022/09/30 09:34:24;;;;;;;14.57;9.87;;;14.00;1.00;;;;;;8359403;28;20210;-69
2022/09/30 09:38:44;;;;;;;15.03;11.40;;;14.00;1.00;;;;;;8364365;28;20182;-70
2022/09/30 09:42:55;;;;;;;11.67;9.17;;;14.10;1.00;;;;;;8348321;28;20309;-69
2022/09/30 09:47:12;;;;;;;12.37;8.93;;;14.20;1.00;;;;;;8365055;28;20178;-69
2022/09/30 09:51:32;;;;;;;15.83;11.17;;;14.20;1.00;;;;;;8362743;28;20212;-69
2022/09/30 09:55:34;;;;;;;13.80;10.07;;;14.20;1.00;;;;;;8361834;28;20670;-70
2022/09/30 09:59:35;;;;;;;13.37;10.30;;;14.30;1.00;;;;;;8359240;28;20364;-69
2022/09/30 10:03:37;;;;;;;14.60;10.93;;;14.40;1.00;;;;;;8360678;28;20227;-69
2022/09/30 10:07:37;;;;;;;14.07;10.50;;;14.40;1.00;;;;;;8361651;28;20196;-69
2022/09/30 10:11:38;;;;;;;12.73;9.23;;;14.40;1.00;;;;;;8362792;28;20219;-70
2022/09/30 10:15:42;;;;;;;13.57;10.07;;;14.30;1.00;;;;;;8364871;28;20186;-70
2022/09/30 10:19:50;;;;;;;10.90;8.80;;;14.30;1.00;;;;;;8361696;28;20193;-69
2022/09/30 10:23:50;;;;;;;12.03;8.77;;;14.40;1.00;;;;;;8364563;28;20209;-69
2022/09/30 10:28:02;;;;;;;12.03;7.30;;;14.50;1.00;;;;;;8353837;28;20189;-70
2022/09/30 10:32:08;;;;;;;7.10;6.33;;;14.60;1.00;;;;;;8353445;28;20206;-70
2022/09/30 10:36:18;;;;;;;8.60;6.93;;;14.70;1.00;;;;;;8357294;28;20190;-69
2022/09/30 10:40:26;;;;;;;10.23;7.23;;;14.80;1.00;;;;;;8359975;28;20217;-69
2022/09/30 10:44:27;;;;;;;12.20;7.63;;;14.90;1.00;;;;;;8360209;28;20182;-69
2022/09/30 10:48:32;;;;;;;6.93;5.37;;;15.00;1.00;;;;;;8361007;28;20200;-69
2022/09/30 10:52:37;;;;;;;6.83;5.43;;;15.20;1.00;;;;;;8361097;28;20270;-69
2022/09/30 10:56:41;;;;;;;5.67;4.20;;;15.40;1.00;;;;;;8357974;28;20263;-69
2022/09/30 11:00:42;;;;;;;4.67;3.77;;;15.70;1.00;;;;;;8359264;28;20205;-69
2022/09/30 11:04:56;;;;;;;3.87;3.40;;;15.80;1.00;;;;;;8356684;28;20187;-69
2022/09/30 11:09:16;;;;;;;4.47;3.63;;;15.80;1.00;;;;;;8359505;28;20186;-69
2022/09/30 11:13:28;;;;;;;5.87;3.93;;;15.80;1.00;;;;;;8360635;28;20212;-69
2022/09/30 11:17:37;;;;;;;4.63;3.23;;;15.80;1.00;;;;;;8358559;28;20237;-70
2022/09/30 11:21:41;;;;;;;5.37;4.10;;;15.90;1.00;;;;;;8360368;28;20216;-69
2022/09/30 11:26:13;;;;;;;6.43;4.87;;;15.90;1.00;;;;;;8355013;28;20234;-70
2022/09/30 11:30:30;;;;;;;9.90;6.87;;;16.00;1.00;;;;;;8363501;28;20524;-69
2022/09/30 11:34:34;;;;;;;5.40;4.90;;;16.00;1.00;;;;;;8348573;28;20214;-70
2022/09/30 11:38:49;;;;;;;9.90;6.90;;;16.00;1.00;;;;;;8356093;28;20186;-70
2022/09/30 11:43:05;;;;;;;7.80;5.93;;;16.00;1.00;;;;;;8359074;28;20190;-68
2022/09/30 11:47:34;;;;;;;5.93;4.50;;;16.10;1.00;;;;;;8360246;28;20657;-69
2022/09/30 11:51:57;;;;;;;6.17;4.43;;;16.20;1.00;;;;;;8355193;28;20229;-70
2022/09/30 11:56:27;;;;;;;5.97;4.73;;;16.20;1.00;;;;;;8360805;28;20203;-69
2022/09/30 12:00:30;;;;;;;6.10;4.07;;;16.30;1.00;;;;;;8350166;28;20209;-69
2022/09/30 20:04:09;;;;;;;28.00;18.13;;;9.40;1.00;;;;;;8388277;28;20528;-67
2022/09/30 20:08:10;;;;;;;24.07;17.50;;;9.40;1.00;;;;;;8381491;28;20180;-68
2022/09/30 20:12:11;;;;;;;19.87;15.40;;;9.40;14.80;;;;;;8389748;28;20266;-68
2022/09/30 20:16:14;;;;;;;17.70;14.37;;;9.40;99.90;;;;;;8385779;28;20231;-67
2022/09/30 20:20:33;;;;;;;18.73;14.40;;;9.40;99.90;;;;;;8391760;28;20188;-68
2022/09/30 20:24:34;;;;;;;69.27;46.37;;;9.40;99.90;;;;;;8390988;28;20189;-68
2022/09/30 20:28:35;;;;;;;74.63;49.83;;;9.20;99.90;;;;;;8386674;28;20272;-68
2022/09/30 20:32:36;;;;;;;78.53;55.50;;;9.10;99.90;;;;;;8392111;28;20183;-67
2022/09/30 20:36:39;;;;;;;68.27;41.40;;;8.90;99.90;;;;;;8386637;28;20186;-68
2022/09/30 20:40:40;;;;;;;64.10;42.17;;;8.60;85.00;;;;;;8391782;28;20212;-67
2022/09/30 20:44:44;;;;;;;57.23;41.27;;;8.50;99.90;;;;;;8386433;28;20193;-68
2022/09/30 20:48:47;;;;;;;55.83;40.10;;;8.30;99.90;;;;;;8389033;28;20304;-68
2022/09/30 20:52:49;;;;;;;49.93;35.87;;;8.10;99.90;;;;;;8384687;28;20181;-68
2022/09/30 20:56:49;;;;;;;47.17;34.83;;;7.90;99.90;;;;;;8390404;28;20189;-67
2022/09/30 21:00:53;;;;;;;46.97;31.93;;;7.80;99.90;;;;;;8381463;28;20220;-67
2022/09/30 21:04:56;;;;;;;42.40;30.70;;;7.60;99.90;;;;;;8386345;28;20189;-67
2022/09/30 21:08:57;;;;;;;43.53;30.03;;;7.50;99.90;;;;;;8389092;28;20187;-67
2022/09/30 21:13:00;;;;;;;39.03;27.17;;;7.30;99.90;;;;;;8375911;28;20204;-67
2022/09/30 21:17:01;;;;;;;31.10;21.60;;;7.20;99.90;;;;;;8360874;28;20182;-67
2022/09/30 21:21:05;;;;;;;28.13;19.90;;;7.10;99.90;;;;;;8365510;28;20248;-67
2022/09/30 21:25:06;;;;;;;23.67;18.23;;;7.00;99.90;;;;;;8361195;28;20186;-67
2022/09/30 21:29:07;;;;;;;23.20;17.20;;;6.80;99.90;;;;;;8368196;28;20336;-66
2022/09/30 21:33:08;;;;;;;25.47;17.33;;;6.80;99.90;;;;;;8360790;28;20201;-66
2022/09/30 21:37:09;;;;;;;23.10;14.87;;;6.70;99.90;;;;;;8364587;28;20185;-66
2022/09/30 21:41:10;;;;;;;19.17;13.07;;;6.60;99.90;;;;;;8367121;28;20286;-66
2022/09/30 21:45:11;;;;;;;19.93;14.57;;;6.50;99.90;;;;;;8361051;28;20182;-66
2022/09/30 21:49:22;;;;;;;20.23;14.87;;;6.40;99.90;;;;;;8364404;28;20182;-66
2022/09/30 21:53:26;;;;;;;17.57;12.77;;;6.30;99.90;;;;;;8372811;28;20186;-66
2022/09/30 21:57:27;;;;;;;15.87;11.70;;;6.20;99.90;;;;;;8361686;28;20263;-67
2022/09/30 22:01:29;;;;;;;13.27;10.10;;;6.00;99.90;;;;;;8366367;28;20297;-66
2022/09/30 22:05:29;;;;;;;11.77;9.47;;;5.90;99.90;;;;;;8364341;28;20181;-66
2022/09/30 22:09:31;;;;;;;15.43;11.30;;;5.90;99.90;;;;;;8364155;28;20182;-66
2022/09/30 22:13:31;;;;;;;18.87;12.03;;;5.80;99.90;;;;;;8364825;28;20211;-66
2022/09/30 22:17:32;;;;;;;20.27;13.97;;;5.70;99.90;;;;;;8361497;28;20194;-66
2022/09/30 22:21:35;;;;;;;18.43;12.50;;;5.70;99.90;;;;;;8360508;28;20202;-66
2022/09/30 22:25:37;;;;;;;15.57;11.90;;;5.60;99.90;;;;;;8367265;28;20185;-66
2022/09/30 22:29:37;;;;;;;15.77;11.17;;;5.60;99.90;;;;;;8360989;28;20185;-66
2022/09/30 22:38:16;;;;;;;16.00;10.30;;;5.30;99.90;;;;;;8356768;28;20235;-66
2022/09/30 22:42:17;;;;;;;19.13;11.20;;;5.20;99.90;;;;;;8349146;28;20220;-67
2022/09/30 22:46:17;;;;;;;16.57;12.13;;;5.20;99.90;;;;;;8379221;28;20440;-66
2022/09/30 22:50:18;;;;;;;22.17;14.10;;;5.20;99.90;;;;;;8360655;28;20197;-67
2022/09/30 22:54:20;;;;;;;20.67;14.27;;;5.20;99.90;;;;;;8356500;28;20189;-66
2022/09/30 22:58:25;;;;;;;17.23;11.60;;;5.10;99.90;;;;;;8359774;28;20185;-66
2022/09/30 23:02:26;;;;;;;16.47;12.33;;;5.10;99.90;;;;;;8349452;28;20267;-67
2022/09/30 23:06:27;;;;;;;20.67;14.20;;;5.00;99.90;;;;;;8348271;28;20190;-67
2022/09/30 23:10:28;;;;;;;36.47;23.83;;;4.90;99.90;;;;;;8353778;28;20185;-67
2022/09/30 23:14:29;;;;;;;23.53;16.87;;;5.00;99.90;;;;;;8355531;28;20221;-67
2022/09/30 23:18:32;;;;;;;17.10;12.93;;;5.10;99.90;;;;;;8361242;28;20264;-66
2022/09/30 23:22:32;;;;;;;12.57;10.70;;;5.00;99.90;;;;;;8364439;28;20213;-67
2022/09/30 23:26:34;;;;;;;11.87;8.83;;;4.80;99.90;;;;;;8355829;28;20215;-67
2022/09/30 23:30:34;;;;;;;12.50;9.67;;;4.60;99.90;;;;;;8361515;28;20285;-66
2022/09/30 23:34:35;;;;;;;10.47;8.20;;;4.40;99.90;;;;;;8363072;28;20201;-67
2022/09/30 23:38:36;;;;;;;11.80;9.07;;;4.40;99.90;;;;;;8358550;28;20182;-72
2022/09/30 23:42:37;;;;;;;11.67;9.70;;;4.30;99.90;;;;;;8357740;28;20213;-66
2022/09/30 23:47:16;;;;;;;13.70;10.17;;;4.30;99.90;;;;;;8349023;28;20180;-66
2022/09/30 23:50:59;;;;;;;12.93;9.27;;;4.20;99.90;;;;;;8359088;28;20228;-66
2022/09/30 23:55:01;;;;;;;12.40;9.47;;;4.10;99.90;;;;;;8364069;28;20205;-66
2022/09/30 23:59:02;;;;;;;13.50;10.00;;;4.00;99.90;;;;;;8350226;28;20185;-67
